aviador You're here:

KLIC Decoded Metar

LIMON in CO, USA
Report Time2017-12-15 13:55:00
UTC Time2017-12-15 14:05:22
Flight Rules vfr VFR
Wind350° at 08 kt
W.Decomp.*RWY 34: 8.0 kt HW 0.1 kt LCW
W.Rank350° ranks 1
Current wind is below 350° avg. (9.6)
Visibility9999 m
Phenomena:N/A
Clouds:N/A
Expected CloudBase > 800 ft AGL from Temp-Dew spread
CeilingNone
Temp-15°C (ISA -19)
Dew Point-17°C (85% RH)
AAT-21.3°C
QNH1018 hPa
Density Alt2,802 ft
Elevation5,348 ft
Report Wrong Elevation
Raw Report
METAR KLIC 151355Z AUTO 35008KT 10SM CLR M15/M17 A3006 RMK AO2 SLP244
T11501167=

Extra information for KLIC:More info

Metar Taf Metar & Taf Last 4 Metars F.Rules Stats Wind Profile Meteogram Temp Stats Airport Information Weather charts Add Link Nearby VenuesMetar ALERT Operation Metar Decoded Social comments

AIRNAV info for KLIC